sensor_id;sensor_type;location;lat;lon;timestamp;P1;durP1;ratioP1;P2;durP2;ratioP2
8952;SDS011;4511;50.890;8.054;2023-10-08T00:01:37;8.53;;;4.50;;
8952;SDS011;4511;50.890;8.054;2023-10-08T00:04:07;7.53;;;4.27;;
8952;SDS011;4511;50.890;8.054;2023-10-08T00:06:36;8.63;;;4.77;;
8952;SDS011;4511;50.890;8.054;2023-10-08T00:09:04;7.87;;;4.93;;
8952;SDS011;4511;50.890;8.054;2023-10-08T00:11:34;6.80;;;4.70;;
8952;SDS011;4511;50.890;8.054;2023-10-08T00:14:02;8.67;;;4.43;;
8952;SDS011;4511;50.890;8.054;2023-10-08T00:16:34;8.03;;;4.57;;
8952;SDS011;4511;50.890;8.054;2023-10-08T00:19:04;6.73;;;4.23;;
8952;SDS011;4511;50.890;8.054;2023-10-08T00:21:34;7.40;;;4.43;;
8952;SDS011;4511;50.890;8.054;2023-10-08T00:24:04;6.47;;;4.80;;
8952;SDS011;4511;50.890;8.054;2023-10-08T00:26:33;8.43;;;4.77;;
8952;SDS011;4511;50.890;8.054;2023-10-08T00:29:05;8.73;;;4.90;;
8952;SDS011;4511;50.890;8.054;2023-10-08T00:31:41;8.47;;;4.60;;
8952;SDS011;4511;50.890;8.054;2023-10-08T00:34:10;9.07;;;4.40;;
8952;SDS011;4511;50.890;8.054;2023-10-08T00:36:38;9.20;;;4.47;;
8952;SDS011;4511;50.890;8.054;2023-10-08T00:39:08;6.70;;;4.60;;
8952;SDS011;4511;50.890;8.054;2023-10-08T00:41:38;5.93;;;4.20;;
8952;SDS011;4511;50.890;8.054;2023-10-08T00:44:07;9.17;;;4.40;;
8952;SDS011;4511;50.890;8.054;2023-10-08T00:46:37;7.40;;;4.03;;
8952;SDS011;4511;50.890;8.054;2023-10-08T00:49:07;5.13;;;4.13;;
8952;SDS011;4511;50.890;8.054;2023-10-08T00:51:49;5.23;;;3.77;;
8952;SDS011;4511;50.890;8.054;2023-10-08T00:54:30;6.23;;;4.37;;
8952;SDS011;4511;50.890;8.054;2023-10-08T00:57:00;6.30;;;4.77;;
8952;SDS011;4511;50.890;8.054;2023-10-08T00:59:31;5.57;;;4.30;;
8952;SDS011;4511;50.890;8.054;2023-10-08T01:02:07;7.70;;;4.60;;
8952;SDS011;4511;50.890;8.054;2023-10-08T01:04:39;10.73;;;5.23;;
8952;SDS011;4511;50.890;8.054;2023-10-08T01:07:09;7.43;;;4.47;;
8952;SDS011;4511;50.890;8.054;2023-10-08T01:09:42;7.57;;;4.57;;
8952;SDS011;4511;50.890;8.054;2023-10-08T01:12:14;9.47;;;5.07;;
8952;SDS011;4511;50.890;8.054;2023-10-08T01:14:46;9.87;;;4.53;;
8952;SDS011;4511;50.890;8.054;2023-10-08T01:17:15;5.93;;;4.33;;
8952;SDS011;4511;50.890;8.054;2023-10-08T01:19:44;6.20;;;4.57;;
8952;SDS011;4511;50.890;8.054;2023-10-08T01:22:17;10.03;;;4.60;;
8952;SDS011;4511;50.890;8.054;2023-10-08T01:24:46;8.93;;;4.70;;
8952;SDS011;4511;50.890;8.054;2023-10-08T01:27:14;8.47;;;4.87;;
8952;SDS011;4511;50.890;8.054;2023-10-08T01:29:46;10.90;;;4.60;;
8952;SDS011;4511;50.890;8.054;2023-10-08T01:32:15;9.10;;;4.90;;
8952;SDS011;4511;50.890;8.054;2023-10-08T01:34:42;8.20;;;5.00;;
8952;SDS011;4511;50.890;8.054;2023-10-08T01:37:11;7.37;;;4.40;;
8952;SDS011;4511;50.890;8.054;2023-10-08T01:39:40;9.67;;;5.20;;
8952;SDS011;4511;50.890;8.054;2023-10-08T01:42:08;8.03;;;4.10;;
8952;SDS011;4511;50.890;8.054;2023-10-08T01:44:42;6.20;;;4.30;;
8952;SDS011;4511;50.890;8.054;2023-10-08T01:47:11;7.17;;;4.47;;
8952;SDS011;4511;50.890;8.054;2023-10-08T01:49:39;6.07;;;4.40;;
8952;SDS011;4511;50.890;8.054;2023-10-08T01:52:07;7.20;;;4.40;;
8952;SDS011;4511;50.890;8.054;2023-10-08T01:54:40;8.43;;;4.60;;
8952;SDS011;4511;50.890;8.054;2023-10-08T01:57:09;10.13;;;4.70;;
8952;SDS011;4511;50.890;8.054;2023-10-08T01:59:38;6.83;;;4.53;;
8952;SDS011;4511;50.890;8.054;2023-10-08T02:02:05;6.87;;;4.70;;
8952;SDS011;4511;50.890;8.054;2023-10-08T02:04:32;6.60;;;4.80;;
8952;SDS011;4511;50.890;8.054;2023-10-08T02:07:02;6.40;;;4.90;;
8952;SDS011;4511;50.890;8.054;2023-10-08T02:09:33;7.40;;;4.73;;
8952;SDS011;4511;50.890;8.054;2023-10-08T02:12:01;7.40;;;4.20;;
8952;SDS011;4511;50.890;8.054;2023-10-08T02:14:29;6.00;;;4.40;;
8952;SDS011;4511;50.890;8.054;2023-10-08T02:16:56;6.37;;;4.47;;
8952;SDS011;4511;50.890;8.054;2023-10-08T02:19:28;9.27;;;4.57;;
8952;SDS011;4511;50.890;8.054;2023-10-08T02:21:55;10.00;;;4.73;;
8952;SDS011;4511;50.890;8.054;2023-10-08T02:24:23;5.47;;;4.33;;
8952;SDS011;4511;50.890;8.054;2023-10-08T02:26:50;13.57;;;5.13;;
8952;SDS011;4511;50.890;8.054;2023-10-08T02:29:19;4.83;;;4.20;;
8952;SDS011;4511;50.890;8.054;2023-10-08T02:31:47;7.90;;;4.50;;
8952;SDS011;4511;50.890;8.054;2023-10-08T02:34:13;6.27;;;4.37;;
8952;SDS011;4511;50.890;8.054;2023-10-08T02:36:40;6.60;;;4.60;;
8952;SDS011;4511;50.890;8.054;2023-10-08T02:39:07;6.93;;;4.90;;
8952;SDS011;4511;50.890;8.054;2023-10-08T02:41:41;7.53;;;4.87;;
8952;SDS011;4511;50.890;8.054;2023-10-08T02:44:11;6.77;;;4.33;;
8952;SDS011;4511;50.890;8.054;2023-10-08T02:46:40;7.83;;;4.67;;
8952;SDS011;4511;50.890;8.054;2023-10-08T02:49:08;6.47;;;4.63;;
8952;SDS011;4511;50.890;8.054;2023-10-08T02:51:37;8.80;;;4.57;;
8952;SDS011;4511;50.890;8.054;2023-10-08T02:54:06;8.33;;;4.97;;
8952;SDS011;4511;50.890;8.054;2023-10-08T02:56:41;6.23;;;4.67;;
8952;SDS011;4511;50.890;8.054;2023-10-08T02:59:09;6.00;;;4.33;;
8952;SDS011;4511;50.890;8.054;2023-10-08T03:01:37;8.53;;;4.77;;
8952;SDS011;4511;50.890;8.054;2023-10-08T03:04:06;6.93;;;4.73;;
8952;SDS011;4511;50.890;8.054;2023-10-08T03:06:42;8.67;;;4.80;;
8952;SDS011;4511;50.890;8.054;2023-10-08T03:09:09;6.30;;;4.50;;
8952;SDS011;4511;50.890;8.054;2023-10-08T03:11:38;6.37;;;4.90;;
8952;SDS011;4511;50.890;8.054;2023-10-08T03:14:11;5.80;;;4.37;;
8952;SDS011;4511;50.890;8.054;2023-10-08T03:16:47;7.27;;;4.97;;
8952;SDS011;4511;50.890;8.054;2023-10-08T03:19:17;7.23;;;4.90;;
8952;SDS011;4511;50.890;8.054;2023-10-08T03:21:45;7.97;;;4.57;;
8952;SDS011;4511;50.890;8.054;2023-10-08T03:24:20;6.73;;;5.00;;
8952;SDS011;4511;50.890;8.054;2023-10-08T03:27:02;7.57;;;5.07;;
8952;SDS011;4511;50.890;8.054;2023-10-08T03:29:37;8.77;;;4.80;;
8952;SDS011;4511;50.890;8.054;2023-10-08T03:32:07;7.83;;;4.83;;
8952;SDS011;4511;50.890;8.054;2023-10-08T03:34:39;6.40;;;5.00;;
8952;SDS011;4511;50.890;8.054;2023-10-08T03:37:11;7.53;;;4.97;;
8952;SDS011;4511;50.890;8.054;2023-10-08T03:39:44;8.33;;;4.83;;
8952;SDS011;4511;50.890;8.054;2023-10-08T03:42:20;7.77;;;5.03;;
8952;SDS011;4511;50.890;8.054;2023-10-08T03:44:49;8.10;;;5.03;;
8952;SDS011;4511;50.890;8.054;2023-10-08T03:47:17;7.53;;;5.40;;
8952;SDS011;4511;50.890;8.054;2023-10-08T03:49:48;8.20;;;4.80;;
8952;SDS011;4511;50.890;8.054;2023-10-08T03:52:16;7.10;;;5.13;;
8952;SDS011;4511;50.890;8.054;2023-10-08T03:54:47;9.93;;;5.43;;
8952;SDS011;4511;50.890;8.054;2023-10-08T03:57:16;8.60;;;4.87;;
8952;SDS011;4511;50.890;8.054;2023-10-08T03:59:50;9.43;;;4.77;;
8952;SDS011;4511;50.890;8.054;2023-10-08T04:02:23;9.37;;;4.60;;
8952;SDS011;4511;50.890;8.054;2023-10-08T04:05:06;6.33;;;4.67;;
8952;SDS011;4511;50.890;8.054;2023-10-08T04:07:44;6.20;;;4.53;;
8952;SDS011;4511;50.890;8.054;2023-10-08T04:10:31;8.40;;;5.07;;
8952;SDS011;4511;50.890;8.054;2023-10-08T04:13:25;5.63;;;4.37;;
8952;SDS011;4511;50.890;8.054;2023-10-08T04:15:53;10.40;;;5.40;;
8952;SDS011;4511;50.890;8.054;2023-10-08T04:18:20;7.40;;;5.10;;
8952;SDS011;4511;50.890;8.054;2023-10-08T04:20:48;9.30;;;4.80;;
8952;SDS011;4511;50.890;8.054;2023-10-08T04:23:25;8.43;;;4.73;;
8952;SDS011;4511;50.890;8.054;2023-10-08T04:25:54;9.97;;;5.17;;
8952;SDS011;4511;50.890;8.054;2023-10-08T04:28:21;8.50;;;5.00;;
8952;SDS011;4511;50.890;8.054;2023-10-08T04:30:51;8.13;;;4.70;;
8952;SDS011;4511;50.890;8.054;2023-10-08T04:33:18;8.90;;;4.60;;
8952;SDS011;4511;50.890;8.054;2023-10-08T04:35:45;8.87;;;4.70;;
8952;SDS011;4511;50.890;8.054;2023-10-08T04:38:19;5.73;;;5.07;;
8952;SDS011;4511;50.890;8.054;2023-10-08T04:40:47;8.63;;;4.73;;
8952;SDS011;4511;50.890;8.054;2023-10-08T04:43:17;10.47;;;5.43;;
8952;SDS011;4511;50.890;8.054;2023-10-08T04:45:49;7.60;;;5.03;;
8952;SDS011;4511;50.890;8.054;2023-10-08T04:48:16;5.67;;;4.77;;
8952;SDS011;4511;50.890;8.054;2023-10-08T04:50:45;6.03;;;4.67;;
8952;SDS011;4511;50.890;8.054;2023-10-08T04:53:24;6.80;;;4.93;;
8952;SDS011;4511;50.890;8.054;2023-10-08T04:55:57;8.67;;;5.30;;
8952;SDS011;4511;50.890;8.054;2023-10-08T04:58:27;19.07;;;5.47;;
8952;SDS011;4511;50.890;8.054;2023-10-08T05:00:58;6.13;;;5.07;;
8952;SDS011;4511;50.890;8.054;2023-10-08T05:03:42;7.03;;;4.90;;
8952;SDS011;4511;50.890;8.054;2023-10-08T05:06:21;7.20;;;5.40;;
8952;SDS011;4511;50.890;8.054;2023-10-08T05:09:06;10.70;;;5.07;;
8952;SDS011;4511;50.890;8.054;2023-10-08T05:11:37;10.30;;;5.20;;
8952;SDS011;4511;50.890;8.054;2023-10-08T05:14:23;6.63;;;4.77;;
8952;SDS011;4511;50.890;8.054;2023-10-08T05:16:59;7.80;;;5.00;;
8952;SDS011;4511;50.890;8.054;2023-10-08T05:19:28;12.63;;;5.83;;
8952;SDS011;4511;50.890;8.054;2023-10-08T05:22:21;12.10;;;4.97;;
8952;SDS011;4511;50.890;8.054;2023-10-08T05:25:10;7.10;;;5.13;;
8952;SDS011;4511;50.890;8.054;2023-10-08T05:28:00;9.40;;;5.17;;
8952;SDS011;4511;50.890;8.054;2023-10-08T05:30:34;7.57;;;5.03;;
8952;SDS011;4511;50.890;8.054;2023-10-08T05:33:07;10.60;;;5.37;;
8952;SDS011;4511;50.890;8.054;2023-10-08T05:35:50;7.93;;;5.40;;
8952;SDS011;4511;50.890;8.054;2023-10-08T05:38:27;9.07;;;5.43;;
8952;SDS011;4511;50.890;8.054;2023-10-08T05:41:14;6.67;;;4.60;;
8952;SDS011;4511;50.890;8.054;2023-10-08T05:43:56;8.43;;;5.43;;
8952;SDS011;4511;50.890;8.054;2023-10-08T05:46:36;8.20;;;5.50;;
8952;SDS011;4511;50.890;8.054;2023-10-08T05:49:31;7.50;;;5.20;;
8952;SDS011;4511;50.890;8.054;2023-10-08T05:52:07;7.90;;;5.30;;
8952;SDS011;4511;50.890;8.054;2023-10-08T05:54:53;9.50;;;6.00;;
8952;SDS011;4511;50.890;8.054;2023-10-08T05:57:53;7.53;;;5.23;;
8952;SDS011;4511;50.890;8.054;2023-10-08T06:00:38;9.60;;;5.70;;
8952;SDS011;4511;50.890;8.054;2023-10-08T06:03:22;9.93;;;5.80;;
8952;SDS011;4511;50.890;8.054;2023-10-08T06:06:01;8.80;;;5.73;;
8952;SDS011;4511;50.890;8.054;2023-10-08T06:08:49;7.03;;;5.30;;
8952;SDS011;4511;50.890;8.054;2023-10-08T06:11:45;8.80;;;5.17;;
8952;SDS011;4511;50.890;8.054;2023-10-08T06:14:33;10.17;;;5.80;;
8952;SDS011;4511;50.890;8.054;2023-10-08T06:17:18;7.63;;;5.33;;
8952;SDS011;4511;50.890;8.054;2023-10-08T06:19:59;10.63;;;5.37;;
8952;SDS011;4511;50.890;8.054;2023-10-08T06:22:34;11.10;;;5.90;;
8952;SDS011;4511;50.890;8.054;2023-10-08T06:25:02;10.33;;;5.63;;
8952;SDS011;4511;50.890;8.054;2023-10-08T06:27:42;7.00;;;5.27;;
8952;SDS011;4511;50.890;8.054;2023-10-08T06:30:12;8.10;;;5.40;;
8952;SDS011;4511;50.890;8.054;2023-10-08T06:32:42;11.30;;;5.70;;
8952;SDS011;4511;50.890;8.054;2023-10-08T06:35:10;9.87;;;5.40;;
8952;SDS011;4511;50.890;8.054;2023-10-08T06:37:42;8.27;;;5.70;;
8952;SDS011;4511;50.890;8.054;2023-10-08T06:40:10;9.93;;;5.53;;
8952;SDS011;4511;50.890;8.054;2023-10-08T06:42:58;8.67;;;5.30;;
8952;SDS011;4511;50.890;8.054;2023-10-08T06:45:30;11.70;;;5.30;;
8952;SDS011;4511;50.890;8.054;2023-10-08T06:47:58;18.73;;;5.80;;
8952;SDS011;4511;50.890;8.054;2023-10-08T06:50:31;9.10;;;5.47;;
8952;SDS011;4511;50.890;8.054;2023-10-08T06:52:59;9.40;;;5.10;;
8952;SDS011;4511;50.890;8.054;2023-10-08T06:55:31;10.90;;;5.90;;
8952;SDS011;4511;50.890;8.054;2023-10-08T06:57:59;8.57;;;6.00;;
8952;SDS011;4511;50.890;8.054;2023-10-08T07:00:27;9.30;;;5.63;;
8952;SDS011;4511;50.890;8.054;2023-10-08T07:03:04;11.77;;;5.63;;
8952;SDS011;4511;50.890;8.054;2023-10-08T07:05:32;7.10;;;5.33;;
8952;SDS011;4511;50.890;8.054;2023-10-08T07:08:01;12.37;;;6.00;;
8952;SDS011;4511;50.890;8.054;2023-10-08T07:10:31;11.63;;;5.50;;
8952;SDS011;4511;50.890;8.054;2023-10-08T07:12:59;8.87;;;5.47;;
8952;SDS011;4511;50.890;8.054;2023-10-08T07:15:27;11.47;;;6.10;;
8952;SDS011;4511;50.890;8.054;2023-10-08T07:17:56;9.47;;;6.27;;
8952;SDS011;4511;50.890;8.054;2023-10-08T07:20:33;11.00;;;6.23;;
8952;SDS011;4511;50.890;8.054;2023-10-08T07:23:03;11.50;;;6.40;;
8952;SDS011;4511;50.890;8.054;2023-10-08T07:25:34;9.50;;;5.70;;
8952;SDS011;4511;50.890;8.054;2023-10-08T07:28:03;10.77;;;5.93;;
8952;SDS011;4511;50.890;8.054;2023-10-08T07:30:37;12.07;;;6.47;;
8952;SDS011;4511;50.890;8.054;2023-10-08T07:33:08;14.30;;;6.23;;
8952;SDS011;4511;50.890;8.054;2023-10-08T07:35:43;10.00;;;6.13;;
8952;SDS011;4511;50.890;8.054;2023-10-08T07:38:19;12.50;;;5.90;;
8952;SDS011;4511;50.890;8.054;2023-10-08T07:40:47;10.13;;;5.93;;
8952;SDS011;4511;50.890;8.054;2023-10-08T07:43:15;10.37;;;5.77;;
8952;SDS011;4511;50.890;8.054;2023-10-08T07:45:46;13.67;;;6.83;;
8952;SDS011;4511;50.890;8.054;2023-10-08T07:48:13;12.20;;;6.83;;
8952;SDS011;4511;50.890;8.054;2023-10-08T07:50:41;14.73;;;6.80;;
8952;SDS011;4511;50.890;8.054;2023-10-08T07:53:10;9.87;;;6.20;;
8952;SDS011;4511;50.890;8.054;2023-10-08T07:55:43;11.50;;;6.50;;
8952;SDS011;4511;50.890;8.054;2023-10-08T07:58:11;11.43;;;7.17;;
8952;SDS011;4511;50.890;8.054;2023-10-08T08:00:39;11.63;;;6.57;;
8952;SDS011;4511;50.890;8.054;2023-10-08T08:03:08;9.13;;;6.40;;
8952;SDS011;4511;50.890;8.054;2023-10-08T08:05:36;10.27;;;6.20;;
8952;SDS011;4511;50.890;8.054;2023-10-08T08:08:05;12.70;;;6.30;;
8952;SDS011;4511;50.890;8.054;2023-10-08T08:10:32;12.70;;;6.37;;
8952;SDS011;4511;50.890;8.054;2023-10-08T08:13:02;8.80;;;6.10;;
8952;SDS011;4511;50.890;8.054;2023-10-08T08:15:31;15.73;;;7.47;;
8952;SDS011;4511;50.890;8.054;2023-10-08T08:17:59;15.60;;;7.43;;
8952;SDS011;4511;50.890;8.054;2023-10-08T08:20:27;15.47;;;7.60;;
8952;SDS011;4511;50.890;8.054;2023-10-08T08:23:04;17.10;;;7.57;;
8952;SDS011;4511;50.890;8.054;2023-10-08T08:25:35;19.33;;;8.90;;
8952;SDS011;4511;50.890;8.054;2023-10-08T08:28:10;14.73;;;8.37;;
8952;SDS011;4511;50.890;8.054;2023-10-08T08:30:42;16.73;;;7.93;;
8952;SDS011;4511;50.890;8.054;2023-10-08T08:33:11;12.37;;;7.73;;
8952;SDS011;4511;50.890;8.054;2023-10-08T08:35:43;16.70;;;7.50;;
8952;SDS011;4511;50.890;8.054;2023-10-08T08:38:10;16.33;;;7.87;;
8952;SDS011;4511;50.890;8.054;2023-10-08T08:40:37;13.47;;;7.93;;
8952;SDS011;4511;50.890;8.054;2023-10-08T08:43:05;14.93;;;9.00;;
8952;SDS011;4511;50.890;8.054;2023-10-08T08:45:32;19.07;;;10.23;;
8952;SDS011;4511;50.890;8.054;2023-10-08T08:48:05;14.27;;;8.20;;
8952;SDS011;4511;50.890;8.054;2023-10-08T08:50:33;19.47;;;9.07;;
8952;SDS011;4511;50.890;8.054;2023-10-08T08:53:02;24.70;;;9.73;;
8952;SDS011;4511;50.890;8.054;2023-10-08T08:55:29;16.80;;;9.13;;
8952;SDS011;4511;50.890;8.054;2023-10-08T08:57:57;28.63;;;10.67;;
8952;SDS011;4511;50.890;8.054;2023-10-08T09:00:26;20.23;;;9.73;;
8952;SDS011;4511;50.890;8.054;2023-10-08T09:02:56;20.83;;;10.17;;
8952;SDS011;4511;50.890;8.054;2023-10-08T09:05:22;16.47;;;9.90;;
8952;SDS011;4511;50.890;8.054;2023-10-08T09:07:56;19.07;;;9.90;;
8952;SDS011;4511;50.890;8.054;2023-10-08T09:10:26;19.40;;;9.67;;
8952;SDS011;4511;50.890;8.054;2023-10-08T09:12:53;18.80;;;10.07;;
8952;SDS011;4511;50.890;8.054;2023-10-08T09:15:23;21.80;;;9.93;;
8952;SDS011;4511;50.890;8.054;2023-10-08T09:17:51;18.93;;;9.40;;
8952;SDS011;4511;50.890;8.054;2023-10-08T09:20:18;16.70;;;8.57;;
8952;SDS011;4511;50.890;8.054;2023-10-08T09:22:46;18.00;;;8.27;;
8952;SDS011;4511;50.890;8.054;2023-10-08T09:25:15;16.93;;;8.63;;
8952;SDS011;4511;50.890;8.054;2023-10-08T09:27:51;14.90;;;8.13;;
8952;SDS011;4511;50.890;8.054;2023-10-08T09:30:21;12.80;;;8.17;;
8952;SDS011;4511;50.890;8.054;2023-10-08T09:32:50;7.43;;;5.47;;
8952;SDS011;4511;50.890;8.054;2023-10-08T09:35:17;14.73;;;6.67;;
8952;SDS011;4511;50.890;8.054;2023-10-08T09:37:45;19.77;;;9.13;;
8952;SDS011;4511;50.890;8.054;2023-10-08T09:40:12;18.80;;;9.23;;
8952;SDS011;4511;50.890;8.054;2023-10-08T09:42:46;21.30;;;10.07;;
8952;SDS011;4511;50.890;8.054;2023-10-08T09:45:15;20.77;;;9.27;;
8952;SDS011;4511;50.890;8.054;2023-10-08T09:47:42;18.90;;;9.67;;
8952;SDS011;4511;50.890;8.054;2023-10-08T09:50:16;22.90;;;10.13;;
8952;SDS011;4511;50.890;8.054;2023-10-08T09:52:48;19.67;;;9.90;;
8952;SDS011;4511;50.890;8.054;2023-10-08T09:55:22;18.57;;;9.77;;
8952;SDS011;4511;50.890;8.054;2023-10-08T09:57:49;14.17;;;8.43;;
8952;SDS011;4511;50.890;8.054;2023-10-08T10:00:18;24.10;;;10.17;;
8952;SDS011;4511;50.890;8.054;2023-10-08T10:02:55;17.47;;;9.50;;
8952;SDS011;4511;50.890;8.054;2023-10-08T10:05:23;22.50;;;10.30;;
8952;SDS011;4511;50.890;8.054;2023-10-08T10:07:56;18.13;;;9.40;;
8952;SDS011;4511;50.890;8.054;2023-10-08T10:10:26;19.63;;;9.60;;
8952;SDS011;4511;50.890;8.054;2023-10-08T10:12:58;18.93;;;9.37;;
8952;SDS011;4511;50.890;8.054;2023-10-08T10:15:27;23.40;;;10.03;;
8952;SDS011;4511;50.890;8.054;2023-10-08T10:17:58;23.77;;;10.43;;
8952;SDS011;4511;50.890;8.054;2023-10-08T10:20:34;22.13;;;9.77;;
8952;SDS011;4511;50.890;8.054;2023-10-08T10:23:15;21.20;;;9.37;;
8952;SDS011;4511;50.890;8.054;2023-10-08T10:26:01;18.80;;;9.43;;
8952;SDS011;4511;50.890;8.054;2023-10-08T10:28:28;20.33;;;9.10;;
8952;SDS011;4511;50.890;8.054;2023-10-08T10:30:57;17.53;;;9.17;;
8952;SDS011;4511;50.890;8.054;2023-10-08T10:33:29;19.73;;;9.60;;
8952;SDS011;4511;50.890;8.054;2023-10-08T10:35:57;20.33;;;9.50;;
8952;SDS011;4511;50.890;8.054;2023-10-08T10:38:24;18.53;;;9.57;;
8952;SDS011;4511;50.890;8.054;2023-10-08T10:40:52;18.77;;;9.70;;
8952;SDS011;4511;50.890;8.054;2023-10-08T10:43:23;21.73;;;9.73;;
8952;SDS011;4511;50.890;8.054;2023-10-08T10:45:58;17.70;;;9.73;;
8952;SDS011;4511;50.890;8.054;2023-10-08T10:48:44;18.60;;;10.33;;
8952;SDS011;4511;50.890;8.054;2023-10-08T10:51:22;21.40;;;10.33;;
8952;SDS011;4511;50.890;8.054;2023-10-08T10:53:48;23.97;;;11.13;;
8952;SDS011;4511;50.890;8.054;2023-10-08T10:56:23;22.70;;;10.47;;
8952;SDS011;4511;50.890;8.054;2023-10-08T10:58:58;22.77;;;10.93;;
8952;SDS011;4511;50.890;8.054;2023-10-08T11:01:27;21.63;;;10.37;;
8952;SDS011;4511;50.890;8.054;2023-10-08T11:03:55;28.77;;;11.70;;
8952;SDS011;4511;50.890;8.054;2023-10-08T11:06:22;22.83;;;12.50;;
8952;SDS011;4511;50.890;8.054;2023-10-08T11:08:50;20.40;;;10.97;;
8952;SDS011;4511;50.890;8.054;2023-10-08T11:11:18;26.20;;;11.77;;
8952;SDS011;4511;50.890;8.054;2023-10-08T11:13:45;22.70;;;12.03;;
8952;SDS011;4511;50.890;8.054;2023-10-08T11:16:17;21.70;;;11.93;;
8952;SDS011;4511;50.890;8.054;2023-10-08T11:18:48;28.80;;;12.03;;
8952;SDS011;4511;50.890;8.054;2023-10-08T11:21:18;24.03;;;12.07;;
8952;SDS011;4511;50.890;8.054;2023-10-08T11:23:49;26.40;;;12.97;;
8952;SDS011;4511;50.890;8.054;2023-10-08T11:26:21;24.60;;;11.90;;
8952;SDS011;4511;50.890;8.054;2023-10-08T11:28:57;25.33;;;12.73;;
8952;SDS011;4511;50.890;8.054;2023-10-08T11:31:25;25.80;;;12.87;;
8952;SDS011;4511;50.890;8.054;2023-10-08T11:33:59;24.23;;;12.93;;
8952;SDS011;4511;50.890;8.054;2023-10-08T11:36:33;28.00;;;13.30;;
8952;SDS011;4511;50.890;8.054;2023-10-08T11:39:13;25.33;;;12.80;;
8952;SDS011;4511;50.890;8.054;2023-10-08T11:41:54;22.17;;;12.77;;
8952;SDS011;4511;50.890;8.054;2023-10-08T11:44:21;21.97;;;12.00;;
8952;SDS011;4511;50.890;8.054;2023-10-08T11:46:49;29.27;;;12.60;;
8952;SDS011;4511;50.890;8.054;2023-10-08T11:49:18;21.87;;;12.57;;
8952;SDS011;4511;50.890;8.054;2023-10-08T11:51:50;27.03;;;12.80;;
8952;SDS011;4511;50.890;8.054;2023-10-08T11:54:17;24.27;;;10.90;;
8952;SDS011;4511;50.890;8.054;2023-10-08T11:56:45;23.17;;;11.20;;
8952;SDS011;4511;50.890;8.054;2023-10-08T11:59:12;18.20;;;10.47;;
8952;SDS011;4511;50.890;8.054;2023-10-08T12:01:39;21.77;;;10.50;;
8952;SDS011;4511;50.890;8.054;2023-10-08T12:04:07;23.27;;;11.20;;
8952;SDS011;4511;50.890;8.054;2023-10-08T12:06:39;20.83;;;10.80;;
8952;SDS011;4511;50.890;8.054;2023-10-08T12:09:11;20.93;;;10.83;;
8952;SDS011;4511;50.890;8.054;2023-10-08T12:11:39;22.50;;;10.83;;
8952;SDS011;4511;50.890;8.054;2023-10-08T12:14:06;26.47;;;11.50;;
8952;SDS011;4511;50.890;8.054;2023-10-08T12:16:33;16.73;;;10.73;;
8952;SDS011;4511;50.890;8.054;2023-10-08T12:19:01;19.17;;;10.87;;
8952;SDS011;4511;50.890;8.054;2023-10-08T12:21:41;19.27;;;10.80;;
8952;SDS011;4511;50.890;8.054;2023-10-08T12:24:11;18.10;;;11.23;;
8952;SDS011;4511;50.890;8.054;2023-10-08T12:26:38;18.30;;;10.90;;
8952;SDS011;4511;50.890;8.054;2023-10-08T12:29:10;25.53;;;11.07;;
8952;SDS011;4511;50.890;8.054;2023-10-08T12:31:39;23.33;;;11.93;;
8952;SDS011;4511;50.890;8.054;2023-10-08T12:34:06;20.80;;;11.50;;
8952;SDS011;4511;50.890;8.054;2023-10-08T12:36:36;23.97;;;11.40;;
8952;SDS011;4511;50.890;8.054;2023-10-08T12:39:05;23.00;;;11.50;;
8952;SDS011;4511;50.890;8.054;2023-10-08T12:41:40;22.80;;;11.20;;
8952;SDS011;4511;50.890;8.054;2023-10-08T12:44:08;19.20;;;10.93;;
8952;SDS011;4511;50.890;8.054;2023-10-08T12:46:35;15.60;;;10.20;;
8952;SDS011;4511;50.890;8.054;2023-10-08T12:49:02;23.27;;;11.07;;
8952;SDS011;4511;50.890;8.054;2023-10-08T12:51:29;17.80;;;10.87;;
8952;SDS011;4511;50.890;8.054;2023-10-08T12:53:58;18.47;;;11.33;;
8952;SDS011;4511;50.890;8.054;2023-10-08T12:56:33;17.30;;;11.20;;
8952;SDS011;4511;50.890;8.054;2023-10-08T12:59:05;19.57;;;11.30;;
8952;SDS011;4511;50.890;8.054;2023-10-08T13:01:32;22.83;;;11.53;;
8952;SDS011;4511;50.890;8.054;2023-10-08T13:04:01;24.40;;;11.57;;
8952;SDS011;4511;50.890;8.054;2023-10-08T13:06:32;22.33;;;11.30;;
8952;SDS011;4511;50.890;8.054;2023-10-08T13:09:02;17.60;;;10.83;;
8952;SDS011;4511;50.890;8.054;2023-10-08T13:11:35;19.37;;;10.63;;
8952;SDS011;4511;50.890;8.054;2023-10-08T13:14:04;24.20;;;11.17;;
8952;SDS011;4511;50.890;8.054;2023-10-08T13:16:31;18.57;;;10.90;;
8952;SDS011;4511;50.890;8.054;2023-10-08T13:18:58;20.67;;;11.40;;
8952;SDS011;4511;50.890;8.054;2023-10-08T13:21:27;19.20;;;10.33;;
8952;SDS011;4511;50.890;8.054;2023-10-08T13:23:54;20.50;;;10.23;;
8952;SDS011;4511;50.890;8.054;2023-10-08T13:26:22;17.27;;;10.70;;
8952;SDS011;4511;50.890;8.054;2023-10-08T13:28:55;19.23;;;10.73;;
8952;SDS011;4511;50.890;8.054;2023-10-08T13:31:21;19.77;;;9.77;;
8952;SDS011;4511;50.890;8.054;2023-10-08T13:33:48;18.33;;;10.83;;
8952;SDS011;4511;50.890;8.054;2023-10-08T13:36:17;18.63;;;10.47;;
8952;SDS011;4511;50.890;8.054;2023-10-08T13:38:44;17.67;;;10.23;;
8952;SDS011;4511;50.890;8.054;2023-10-08T13:41:12;14.67;;;9.63;;
8952;SDS011;4511;50.890;8.054;2023-10-08T13:43:41;21.00;;;10.17;;
8952;SDS011;4511;50.890;8.054;2023-10-08T13:46:12;19.50;;;10.00;;
8952;SDS011;4511;50.890;8.054;2023-10-08T13:48:40;21.73;;;10.30;;
8952;SDS011;4511;50.890;8.054;2023-10-08T13:51:12;21.50;;;10.63;;
8952;SDS011;4511;50.890;8.054;2023-10-08T13:53:40;24.40;;;11.30;;
8952;SDS011;4511;50.890;8.054;2023-10-08T13:56:10;17.50;;;10.23;;
8952;SDS011;4511;50.890;8.054;2023-10-08T13:58:39;20.90;;;10.57;;
8952;SDS011;4511;50.890;8.054;2023-10-08T14:01:12;20.33;;;11.33;;
8952;SDS011;4511;50.890;8.054;2023-10-08T14:03:46;16.77;;;10.33;;
8952;SDS011;4511;50.890;8.054;2023-10-08T14:06:14;19.97;;;10.67;;
8952;SDS011;4511;50.890;8.054;2023-10-08T14:08:41;21.60;;;10.50;;
8952;SDS011;4511;50.890;8.054;2023-10-08T14:11:17;19.17;;;10.47;;
8952;SDS011;4511;50.890;8.054;2023-10-08T14:13:44;15.63;;;9.87;;
8952;SDS011;4511;50.890;8.054;2023-10-08T14:16:13;18.93;;;10.03;;
8952;SDS011;4511;50.890;8.054;2023-10-08T14:18:42;19.43;;;10.37;;
8952;SDS011;4511;50.890;8.054;2023-10-08T14:21:15;21.83;;;10.83;;
8952;SDS011;4511;50.890;8.054;2023-10-08T14:23:44;21.93;;;10.63;;
8952;SDS011;4511;50.890;8.054;2023-10-08T14:26:12;22.50;;;10.97;;
8952;SDS011;4511;50.890;8.054;2023-10-08T14:28:40;16.17;;;10.20;;
8952;SDS011;4511;50.890;8.054;2023-10-08T14:31:09;20.97;;;11.10;;
8952;SDS011;4511;50.890;8.054;2023-10-08T14:33:42;17.57;;;10.50;;
8952;SDS011;4511;50.890;8.054;2023-10-08T14:36:21;19.07;;;11.10;;
8952;SDS011;4511;50.890;8.054;2023-10-08T14:39:06;21.50;;;10.80;;
8952;SDS011;4511;50.890;8.054;2023-10-08T14:41:50;19.63;;;11.27;;
8952;SDS011;4511;50.890;8.054;2023-10-08T14:44:34;23.00;;;11.03;;
8952;SDS011;4511;50.890;8.054;2023-10-08T14:47:02;17.53;;;10.67;;
8952;SDS011;4511;50.890;8.054;2023-10-08T14:49:30;15.40;;;10.40;;
8952;SDS011;4511;50.890;8.054;2023-10-08T14:51:58;17.77;;;10.93;;
8952;SDS011;4511;50.890;8.054;2023-10-08T14:54:25;19.57;;;11.43;;
8952;SDS011;4511;50.890;8.054;2023-10-08T14:56:53;19.60;;;11.60;;
8952;SDS011;4511;50.890;8.054;2023-10-08T14:59:22;30.13;;;12.07;;
8952;SDS011;4511;50.890;8.054;2023-10-08T15:01:53;21.70;;;11.83;;
8952;SDS011;4511;50.890;8.054;2023-10-08T15:04:23;20.33;;;12.20;;
8952;SDS011;4511;50.890;8.054;2023-10-08T15:06:52;18.87;;;11.23;;
8952;SDS011;4511;50.890;8.054;2023-10-08T15:09:19;22.27;;;12.43;;
8952;SDS011;4511;50.890;8.054;2023-10-08T15:11:48;21.60;;;11.47;;
8952;SDS011;4511;50.890;8.054;2023-10-08T15:14:16;24.23;;;12.43;;
8952;SDS011;4511;50.890;8.054;2023-10-08T15:16:44;29.73;;;12.40;;
8952;SDS011;4511;50.890;8.054;2023-10-08T15:19:11;23.57;;;12.47;;
8952;SDS011;4511;50.890;8.054;2023-10-08T15:21:40;21.17;;;11.97;;
8952;SDS011;4511;50.890;8.054;2023-10-08T15:24:09;21.40;;;11.77;;
8952;SDS011;4511;50.890;8.054;2023-10-08T15:26:36;23.97;;;13.23;;
8952;SDS011;4511;50.890;8.054;2023-10-08T15:29:04;22.67;;;13.17;;